Map

Track Data

SID SEASON NUMBER BASIN SUBBASIN NAME ISO_TIME NATURE LAT LON WMO_WIND WMO_PRES WMO_AGENCY TRACK_TYPE DIST2LAND LANDFALL IFLAG USA_AGENCY USA_ATCF_ID USA_LAT USA_LON USA_RECORD USA_STATUS USA_WIND USA_PRES USA_SSHS USA_R34_NE USA_R34_SE USA_R34_SW USA_R34_NW USA_R50_NE USA_R50_SE USA_R50_SW USA_R50_NW USA_R64_NE USA_R64_SE USA_R64_SW USA_R64_NW USA_POCI USA_ROCI USA_RMW USA_EYE TOKYO_LAT TOKYO_LON TOKYO_GRADE TOKYO_WIND TOKYO_PRES TOKYO_R50_DIR TOKYO_R50_LONG TOKYO_R50_SHORT TOKYO_R30_DIR TOKYO_R30_LONG TOKYO_R30_SHORT TOKYO_LAND CMA_LAT CMA_LON CMA_CAT CMA_WIND CMA_PRES HKO_LAT HKO_LON HKO_CAT HKO_WIND HKO_PRES NEWDELHI_LAT NEWDELHI_LON NEWDELHI_GRADE NEWDELHI_WIND NEWDELHI_PRES NEWDELHI_CI NEWDELHI_DP NEWDELHI_POCI REUNION_LAT REUNION_LON REUNION_TYPE REUNION_WIND REUNION_PRES REUNION_TNUM REUNION_CI REUNION_RMW REUNION_R34_NE REUNION_R34_SE REUNION_R34_SW REUNION_R34_NW REUNION_R50_NE REUNION_R50_SE REUNION_R50_SW REUNION_R50_NW REUNION_R64_NE REUNION_R64_SE REUNION_R64_SW REUNION_R64_NW BOM_LAT BOM_LON BOM_TYPE BOM_WIND BOM_PRES BOM_TNUM BOM_CI BOM_RMW BOM_R34_NE BOM_R34_SE BOM_R34_SW BOM_R34_NW BOM_R50_NE BOM_R50_SE BOM_R50_SW BOM_R50_NW BOM_R64_NE BOM_R64_SE BOM_R64_SW BOM_R64_NW BOM_ROCI BOM_POCI BOM_EYE BOM_POS_METHOD BOM_PRES_METHOD NADI_LAT NADI_LON NADI_CAT NADI_WIND NADI_PRES WELLINGTON_LAT WELLINGTON_LON WELLINGTON_WIND WELLINGTON_PRES DS824_LAT DS824_LON DS824_STAGE DS824_WIND DS824_PRES TD9636_LAT TD9636_LON TD9636_STAGE TD9636_WIND TD9636_PRES TD9635_LAT TD9635_LON TD9635_WIND TD9635_PRES TD9635_ROCI NEUMANN_LAT NEUMANN_LON NEUMANN_CLASS NEUMANN_WIND NEUMANN_PRES MLC_LAT MLC_LON MLC_CLASS MLC_WIND MLC_PRES USA_GUST BOM_GUST BOM_GUST_PER REUNION_GUST REUNION_GUST_PER USA_SEAHGT USA_SEARAD_NE USA_SEARAD_SE USA_SEARAD_SW USA_SEARAD_NW STORM_SPEED STORM_DIR
1873032S12436 1873 5 SI MM NOT_NAMED 1873-01-31 18:00:00 NR -12.0000 76.0000 main 2069 2069 __________O___ -1 -12.0000 76.0000 7 9 227
1873032S12436 1873 5 SI MM NOT_NAMED 1873-01-31 21:00:00 NR -12.3081 75.6600 main 2107 2053 __________P___ -1 -12.3081 75.6600 7 9 228
1873032S12436 1873 5 SI MM NOT_NAMED 1873-02-01 00:00:00 NR -12.6128 75.3156 main 2053 2009 __________P___ -1 -12.6128 75.3156 7 9 228
1873032S12436 1873 5 SI MM NOT_NAMED 1873-02-01 03:00:00 NR -12.9111 74.9635 main 2009 1955 __________P___ -1 -12.9111 74.9635 7 9 230
1873032S12436 1873 5 SI MM NOT_NAMED 1873-02-01 06:00:00 NR -13.2000 74.6000 main 1955 1902 __________O___ -1 -13.2000 74.6000 7 9 232
1873032S12436 1873 5 SI MM NOT_NAMED 1873-02-01 09:00:00 NR -13.4781 74.2238 main 1902 1863 __________P___ -1 -13.4781 74.2238 7 9 233
1873032S12436 1873 5 SI MM NOT_NAMED 1873-02-01 12:00:00 NR -13.7500 73.8422 main 1853 1809 __________P___ -1 -13.7500 73.8422 7 9 234
1873032S12436 1873 5 SI MM NOT_NAMED 1873-02-01 15:00:00 NR -14.0218 73.4644 main 1809 1756 __________P___ -1 -14.0218 73.4644 7 9 233
1873032S12436 1873 5 SI MM NOT_NAMED 1873-02-01 18:00:00 NR -14.3000 73.1000 main 1756 1713 __________O___ -1 -14.3000 73.1000 7 9 230
1873032S12436 1873 5 SI MM NOT_NAMED 1873-02-01 21:00:00 NR -14.5762 72.7722 main 1713 1674 __________P___ -1 -14.5762 72.7722 7 8 228
1873032S12436 1873 5 SI MM NOT_NAMED 1873-02-02 00:00:00 NR -14.8620 72.4565 main 1670 1631 __________P___ -1 -14.8620 72.4565 7 9 226
1873032S12436 1873 5 SI MM NOT_NAMED 1873-02-02 03:00:00 NR -15.1668 72.1377 main 1617 1575 __________P___ -1 -15.1668 72.1377 7 9 225
1873032S12436 1873 5 SI MM NOT_NAMED 1873-02-02 06:00:00 NR -15.5000 71.8000 main 1575 1522 __________O___ -1 -15.5000 71.8000 7 10 225
1873032S12436 1873 5 SI MM NOT_NAMED 1873-02-02 09:00:00 NR -15.8714 71.4095 main 1518 1466 __________P___ -1 -15.8714 71.4095 7 11 225
1873032S12436 1873 5 SI MM NOT_NAMED 1873-02-02 12:00:00 NR -16.2702 71.0002 main 1463 1408 __________P___ -1 -16.2702 71.0002 7 11 224
1873032S12436 1873 5 SI MM NOT_NAMED 1873-02-02 15:00:00 NR -16.6839 70.5907 main 1408 1353 __________P___ -1 -16.6839 70.5907 7 11 223
1873032S12436 1873 5 SI MM NOT_NAMED 1873-02-02 18:00:00 NR -17.1000 70.2000 main 1353 1310 __________O___ -1 -17.1000 70.2000 7 11 221
1873032S12436 1873 5 SI MM NOT_NAMED 1873-02-02 21:00:00 NR -17.5037 69.8489 main 1300 1258 __________P___ -1 -17.5037 69.8489 7 10 219
1873032S12436 1873 5 SI MM NOT_NAMED 1873-02-03 00:00:00 NR -17.9071 69.5193 main 1258 1216 __________P___ -1 -17.9071 69.5193 7 10 217
1873032S12436 1873 5 SI MM NOT_NAMED 1873-02-03 03:00:00 NR -18.3069 69.2052 main 1216 1176 __________P___ -1 -18.3069 69.2052 7 10 217
1873032S12436 1873 5 SI MM NOT_NAMED 1873-02-03 06:00:00 NR -18.7000 68.9000 main 1176 1140 __________O___ -1 -18.7000 68.9000 7 10 218
1873032S12436 1873 5 SI MM NOT_NAMED 1873-02-03 09:00:00 NR -19.0699 68.5841 main 1138 1102 __________P___ -1 -19.0699 68.5841 7 9 219
1873032S12436 1873 5 SI MM NOT_NAMED 1873-02-03 12:00:00 NR -19.4349 68.2768 main 1102 1066 __________P___ -1 -19.4349 68.2768 7 9 218
1873032S12436 1873 5 SI MM NOT_NAMED 1873-02-03 15:00:00 NR -19.8074 67.9810 main 1066 1032 __________P___ -1 -19.8074 67.9810 7 9 215
1873032S12436 1873 5 SI MM NOT_NAMED 1873-02-03 18:00:00 NR -20.2000 67.7000 main 1032 1000 __________O___ -1 -20.2000 67.7000 7 10 212
1873032S12436 1873 5 SI MM NOT_NAMED 1873-02-03 21:00:00 NR -20.6609 67.4116 main 1000 980 __________P___ -1 -20.6609 67.4116 7 11 209
1873032S12436 1873 5 SI MM NOT_NAMED 1873-02-04 00:00:00 NR -21.1375 67.1406 main 971 954 __________P___ -1 -21.1375 67.1406 7 11 207
1873032S12436 1873 5 SI MM NOT_NAMED 1873-02-04 03:00:00 NR -21.5953 66.8992 main 955 940 __________P___ -1 -21.5953 66.8992 7 10 205
1873032S12436 1873 5 SI MM NOT_NAMED 1873-02-04 06:00:00 NR -22.0000 66.7000 main 941 933 __________O___ -1 -22.0000 66.7000 7 8 204
1873032S12436 1873 5 SI MM NOT_NAMED 1873-02-04 09:00:00 NR -22.3113 66.5480 main 928 923 __________P___ -1 -22.3113 66.5480 7 6 203
1873032S12436 1873 5 SI MM NOT_NAMED 1873-02-04 12:00:00 NR -22.5672 66.4391 main 926 926 __________P___ -1 -22.5672 66.4391 7 5 200
1873032S12436 1873 5 SI MM NOT_NAMED 1873-02-04 15:00:00 NR -22.7895 66.3607 main 931 922 __________P___ -1 -22.7895 66.3607 7 5 197
1873032S12436 1873 5 SI MM NOT_NAMED 1873-02-04 18:00:00 NR -23.0000 66.3000 main 928 925 __________O___ -1 -23.0000 66.3000 7 5 196
1873032S12436 1873 5 SI MM NOT_NAMED 1873-02-04 21:00:00 NR -23.2240 66.2314 main 925 925 __________P___ -1 -23.2240 66.2314 7 5 194
1873032S12436 1873 5 SI MM NOT_NAMED 1873-02-05 00:00:00 NR -23.4425 66.1773 main 933 931 __________P___ -1 -23.4425 66.1773 7 5 191
1873032S12436 1873 5 SI MM NOT_NAMED 1873-02-05 03:00:00 NR -23.6647 66.1346 main 935 935 __________P___ -1 -23.6647 66.1346 7 5 189
1873032S12436 1873 5 SI MM NOT_NAMED 1873-02-05 06:00:00 NR -23.9000 66.1000 main 944 944 __________O___ -1 -23.9000 66.1000 7 5 188
1873032S12436 1873 5 SI MM NOT_NAMED 1873-02-05 09:00:00 NR -24.1728 66.0597 main 957 952 __________P___ -1 -24.1728 66.0597 7 6 188
1873032S12436 1873 5 SI MM NOT_NAMED 1873-02-05 12:00:00 NR -24.4575 66.0276 main 962 962 __________P___ -1 -24.4575 66.0276 7 6 183
1873032S12436 1873 5 SI MM NOT_NAMED 1873-02-05 15:00:00 NR -24.7384 66.0066 main 972 972 __________P___ -1 -24.7384 66.0066 7 5 0
1873032S12436 1873 5 SI MM NOT_NAMED 1873-02-05 18:00:00 NR -25.0000 66.0000 main 987 987 __________O___ -1 -25.0000 66.0000 7 4 0
1873032S12436 1873 5 SI MM NOT_NAMED 1873-02-05 21:00:00 NR -25.1850 65.9947 main 998 998 __________P___ -1 -25.1850 65.9947 7 4 0
1873032S12436 1873 5 SI MM NOT_NAMED 1873-02-06 00:00:00 NR -25.3549 66.0055 main 1010 1010 __________P___ -1 -25.3549 66.0055 7 4 174
1873032S12436 1873 5 SI MM NOT_NAMED 1873-02-06 03:00:00 NR -25.5474 66.0386 main 1016 1016 __________P___ -1 -25.5474 66.0386 7 5 168
1873032S12436 1873 5 SI MM NOT_NAMED 1873-02-06 06:00:00 NR -25.8000 66.1000 main 1042 1042 __________O___ -1 -25.8000 66.1000 7 6 168
1873032S12436 1873 5 SI MM NOT_NAMED 1873-02-06 09:00:00 NR -26.1766 66.1878 main 1075 1075 __________P___ -1 -26.1766 66.1878 7 8 167
1873032S12436 1873 5 SI MM NOT_NAMED 1873-02-06 12:00:00 NR -26.6125 66.3046 main 1109 1109 __________P___ -1 -26.6125 66.3046 7 9 165
1873032S12436 1873 5 SI MM NOT_NAMED 1873-02-06 15:00:00 NR -27.0672 66.4442 main 1151 1151 __________P___ -1 -27.0672 66.4442 7 9 164
1873032S12436 1873 5 SI MM NOT_NAMED 1873-02-06 18:00:00 NR -27.5000 66.6000 main 1194 1194 __________O___ -1 -27.5000 66.6000 7 9 161
1873032S12436 1873 5 SI MM NOT_NAMED 1873-02-06 21:00:00 NR -27.8797 66.7662 main 1237 1237 __________P___ -1 -27.8797 66.7662 7 8 157
1873032S12436 1873 5 SI MM NOT_NAMED 1873-02-07 00:00:00 NR -28.2126 66.9396 main 1267 1267 __________P___ -1 -28.2126 66.9396 7 7 154
1873032S12436 1873 5 SI MM NOT_NAMED 1873-02-07 03:00:00 NR -28.5142 67.1183 main 1303 1303 __________P___ -1 -28.5142 67.1183 7 7 152
1873032S12436 1873 5 SI MM NOT_NAMED 1873-02-07 06:00:00 NR -28.8000 67.3000 main 1340 __________O___ -1 -28.8000 67.3000 7 7 151

About IBTrACS Database

This database is a web-friendly format of International Best Track Archive for Climate Stewardship (IBTrACS), a global best track data archive curated by NOAA dating back to 1842.

Updated: 2021-12-01